createdAt,value
2023-01-13T00:01:32.016Z,4.70
2023-01-13T00:04:26.316Z,5.90
2023-01-13T00:07:19.513Z,3.20
2023-01-13T00:10:14.648Z,1.20
2023-01-13T00:13:07.319Z,6.40
2023-01-13T00:16:04.605Z,5.40
2023-01-13T00:18:57.340Z,3.70
2023-01-13T00:21:50.466Z,3.60
2023-01-13T00:24:43.597Z,3.50
2023-01-13T00:27:36.748Z,3.80
2023-01-13T00:30:31.286Z,3.90
2023-01-13T00:33:24.992Z,3.80
2023-01-13T00:36:19.364Z,2.80
2023-01-13T00:39:12.441Z,7.20
2023-01-13T00:42:23.499Z,4.10
2023-01-13T00:45:16.827Z,2.80
2023-01-13T00:48:09.453Z,3.70
2023-01-13T00:51:03.826Z,3.60
2023-01-13T00:53:56.353Z,4.20
2023-01-13T00:56:49.441Z,2.90
2023-01-13T00:59:42.533Z,3.80
2023-01-13T01:02:35.704Z,1.80
2023-01-13T01:05:29.021Z,2.70
2023-01-13T01:08:22.557Z,1.10
2023-01-13T01:11:17.596Z,3.60
2023-01-13T01:14:11.965Z,2.10
2023-01-13T01:17:04.463Z,2.10
2023-01-13T01:19:57.587Z,2.70
2023-01-13T01:22:50.649Z,4.90
2023-01-13T01:25:43.645Z,2.70
2023-01-13T01:28:36.877Z,2.90
2023-01-13T01:31:32.382Z,7.20
2023-01-13T01:34:24.976Z,2.00
2023-01-13T01:37:18.215Z,6.50
2023-01-13T01:40:14.353Z,5.00
2023-01-13T01:43:29.772Z,5.30
2023-01-13T01:46:23.298Z,5.70
2023-01-13T01:49:20.011Z,3.80
2023-01-13T01:52:14.802Z,2.50
2023-01-13T01:55:11.527Z,3.40
2023-01-13T01:58:08.907Z,5.00
2023-01-13T02:01:01.735Z,5.00
2023-01-13T02:03:58.990Z,3.90
2023-01-13T02:06:51.600Z,3.90
2023-01-13T02:09:45.263Z,4.40
2023-01-13T02:12:38.353Z,6.60
2023-01-13T02:15:36.589Z,3.00
2023-01-13T02:18:50.626Z,4.40
2023-01-13T02:22:02.279Z,3.50
2023-01-13T02:25:23.474Z,7.70
2023-01-13T02:29:04.563Z,3.50
2023-01-13T02:32:00.253Z,9.00
2023-01-13T02:34:56.679Z,5.40
2023-01-13T02:37:49.180Z,4.10
2023-01-13T02:40:45.393Z,4.20
2023-01-13T02:43:57.365Z,2.00
2023-01-13T02:46:54.821Z,4.20
2023-01-13T02:49:50.366Z,2.60
2023-01-13T02:52:45.861Z,5.80
2023-01-13T02:55:41.225Z,6.00
2023-01-13T02:58:33.837Z,1.80
2023-01-13T03:01:27.196Z,6.30
2023-01-13T03:04:51.693Z,7.90
2023-01-13T03:08:19.995Z,2.90
2023-01-13T03:11:13.947Z,5.70
2023-01-13T03:14:15.236Z,2.10
2023-01-13T03:17:27.049Z,5.20
2023-01-13T03:20:22.632Z,3.70
2023-01-13T03:23:20.353Z,1.10
2023-01-13T03:26:16.438Z,2.30
2023-01-13T03:29:12.904Z,4.30
2023-01-13T03:32:10.899Z,2.90
2023-01-13T03:35:08.714Z,2.50
2023-01-13T03:38:04.007Z,2.40
2023-01-13T03:40:59.211Z,4.00
2023-01-13T03:44:12.725Z,3.20
2023-01-13T03:47:13.896Z,3.10
2023-01-13T03:50:08.813Z,1.60
2023-01-13T03:53:03.361Z,1.60
2023-01-13T03:55:59.502Z,3.10
2023-01-13T03:58:52.347Z,3.00
2023-01-13T04:02:02.621Z,3.00
2023-01-13T04:04:58.310Z,0.90
2023-01-13T04:07:56.837Z,0.50
2023-01-13T04:10:53.507Z,0.80
2023-01-13T04:13:46.171Z,3.30
2023-01-13T04:16:39.390Z,2.70
2023-01-13T04:19:33.085Z,2.90
2023-01-13T04:22:27.265Z,1.70
2023-01-13T04:25:21.477Z,1.30
2023-01-13T04:28:14.868Z,1.60
2023-01-13T04:31:08.514Z,1.30
2023-01-13T04:34:01.111Z,0.40
2023-01-13T04:36:54.389Z,2.10
2023-01-13T04:39:47.586Z,1.80
2023-01-13T04:42:40.638Z,1.80
2023-01-13T04:45:33.852Z,1.40
2023-01-13T04:48:28.055Z,2.70
2023-01-13T04:51:21.165Z,1.90
2023-01-13T04:54:16.225Z,0.40
2023-01-13T04:57:09.523Z,0.50
2023-01-13T05:00:03.098Z,2.50
2023-01-13T05:02:56.169Z,0.30
2023-01-13T05:05:53.201Z,1.50
2023-01-13T05:08:46.095Z,1.20
2023-01-13T05:11:56.622Z,1.80
2023-01-13T05:15:07.214Z,1.00
2023-01-13T05:18:00.543Z,3.40
2023-01-13T05:20:53.813Z,1.00
2023-01-13T05:24:06.948Z,1.80
2023-01-13T05:27:01.046Z,0.60
2023-01-13T05:29:54.698Z,1.90
2023-01-13T05:32:47.502Z,1.00
2023-01-13T05:35:41.492Z,0.40
2023-01-13T05:38:34.659Z,1.70
2023-01-13T05:41:45.375Z,1.30
2023-01-13T05:44:38.712Z,1.40
2023-01-13T05:47:32.366Z,1.00
2023-01-13T05:50:25.176Z,1.70
2023-01-13T05:53:18.036Z,1.00
2023-01-13T05:56:12.630Z,3.50
2023-01-13T05:59:05.714Z,0.90
2023-01-13T06:01:59.111Z,2.10
2023-01-13T06:04:52.459Z,1.30
2023-01-13T06:07:44.970Z,1.60
2023-01-13T06:10:38.957Z,2.70
2023-01-13T06:13:31.519Z,1.10
2023-01-13T06:16:24.721Z,1.60
2023-01-13T06:19:17.926Z,6.50
2023-01-13T06:22:16.452Z,2.60
2023-01-13T06:25:13.980Z,2.70
2023-01-13T06:28:06.526Z,2.30
2023-01-13T06:31:01.049Z,3.00
2023-01-13T06:33:56.349Z,0.90
2023-01-13T06:36:51.777Z,2.40
2023-01-13T06:39:44.528Z,1.30
2023-01-13T06:42:56.345Z,0.90
2023-01-13T06:45:52.306Z,0.90
2023-01-13T06:48:45.042Z,0.80
2023-01-13T06:51:37.565Z,2.50
2023-01-13T06:54:30.406Z,1.10
2023-01-13T06:57:23.461Z,0.90
2023-01-13T07:00:19.182Z,1.20
2023-01-13T07:03:14.465Z,2.00
2023-01-13T07:06:08.809Z,0.80
2023-01-13T07:09:01.746Z,1.70
2023-01-13T07:11:55.184Z,2.70
2023-01-13T07:15:06.209Z,0.60
2023-01-13T07:17:59.849Z,1.40
2023-01-13T07:20:58.373Z,1.60
2023-01-13T07:23:51.423Z,0.80
2023-01-13T07:26:44.519Z,0.70
2023-01-13T07:29:38.312Z,2.50
2023-01-13T07:32:32.277Z,2.30
2023-01-13T07:35:25.776Z,1.90
2023-01-13T07:38:19.570Z,2.00
2023-01-13T07:41:32.072Z,2.50
2023-01-13T07:44:25.254Z,3.00
2023-01-13T07:47:19.816Z,0.60
2023-01-13T07:50:14.713Z,2.10
2023-01-13T07:53:07.908Z,2.10
2023-01-13T07:56:00.817Z,3.00
2023-01-13T07:58:53.353Z,2.00
2023-01-13T08:01:46.086Z,6.30
2023-01-13T08:04:39.425Z,2.40
2023-01-13T08:07:32.186Z,3.80
2023-01-13T08:10:25.455Z,1.80
2023-01-13T08:13:20.255Z,2.50
2023-01-13T08:16:14.527Z,1.90
2023-01-13T08:19:07.183Z,2.10
2023-01-13T08:22:00.226Z,2.70
2023-01-13T08:24:52.991Z,1.10
2023-01-13T08:27:45.706Z,2.70
2023-01-13T08:30:38.466Z,6.70
2023-01-13T08:33:31.274Z,2.00
2023-01-13T08:36:25.575Z,3.60
2023-01-13T08:39:18.692Z,5.50
2023-01-13T08:42:11.331Z,1.90
2023-01-13T08:45:03.892Z,2.90
2023-01-13T08:47:56.516Z,4.40
2023-01-13T08:50:49.764Z,4.60
2023-01-13T08:53:42.951Z,3.50
2023-01-13T08:56:36.350Z,3.70
2023-01-13T08:59:29.619Z,2.40
2023-01-13T09:02:24.319Z,5.70
2023-01-13T09:05:18.021Z,5.70
2023-01-13T09:08:11.714Z,4.10
2023-01-13T09:11:25.113Z,7.00
2023-01-13T09:14:20.957Z,8.40
2023-01-13T09:17:13.607Z,6.00
2023-01-13T09:20:08.268Z,6.40
2023-01-13T09:23:00.910Z,8.50
2023-01-13T09:25:54.881Z,8.40
2023-01-13T09:28:48.035Z,5.70
2023-01-13T09:31:43.910Z,5.30
2023-01-13T09:34:55.043Z,4.60
2023-01-13T09:37:48.773Z,5.00
2023-01-13T09:40:43.718Z,3.30
2023-01-13T09:43:57.519Z,6.00
2023-01-13T09:46:53.253Z,6.20
2023-01-13T09:49:46.382Z,4.60
2023-01-13T09:52:39.623Z,3.90
2023-01-13T09:55:36.872Z,3.10
2023-01-13T09:58:29.941Z,4.30
2023-01-13T10:01:28.076Z,5.60
2023-01-13T10:04:20.804Z,2.60
2023-01-13T10:07:16.536Z,4.20
2023-01-13T10:10:13.850Z,4.20
2023-01-13T10:13:15.306Z,3.60
2023-01-13T10:16:23.597Z,5.50
2023-01-13T10:19:22.673Z,3.60
2023-01-13T10:22:45.728Z,4.50
2023-01-13T10:25:50.073Z,4.10
2023-01-13T10:28:42.773Z,5.80
2023-01-13T10:31:35.939Z,4.40
2023-01-13T10:34:30.223Z,5.60
2023-01-13T10:37:27.873Z,7.80
2023-01-13T10:40:22.243Z,4.80
2023-01-13T10:43:15.217Z,3.00
2023-01-13T10:46:11.943Z,4.30
2023-01-13T10:49:05.519Z,6.70
2023-01-13T10:51:58.211Z,5.40
2023-01-13T10:54:55.494Z,10.50
2023-01-13T10:57:48.665Z,6.20
2023-01-13T11:00:41.976Z,8.90
2023-01-13T11:03:47.105Z,5.90
2023-01-13T11:06:40.301Z,5.30
2023-01-13T11:09:34.447Z,5.30
2023-01-13T11:12:36.147Z,9.60
2023-01-13T11:15:35.164Z,5.60
2023-01-13T11:18:32.279Z,8.10
2023-01-13T11:21:28.902Z,5.70
2023-01-13T11:24:26.484Z,5.80
2023-01-13T11:27:22.972Z,6.40
2023-01-13T11:30:22.325Z,7.20
2023-01-13T11:33:31.748Z,5.80
2023-01-13T11:36:25.942Z,6.40
2023-01-13T11:39:22.479Z,3.10
2023-01-13T11:42:24.386Z,5.40
2023-01-13T11:45:22.731Z,3.20
2023-01-13T11:48:19.636Z,5.80
2023-01-13T11:51:22.875Z,4.80
2023-01-13T11:54:34.052Z,3.20
2023-01-13T11:58:01.193Z,3.30
2023-01-13T12:01:05.282Z,3.70
2023-01-13T12:04:07.174Z,5.60
2023-01-13T12:07:13.015Z,7.20
2023-01-13T12:10:13.268Z,9.70
2023-01-13T12:13:11.176Z,10.40
2023-01-13T12:16:12.888Z,7.50
2023-01-13T12:19:25.514Z,8.30
2023-01-13T12:22:21.753Z,7.30
2023-01-13T12:25:22.493Z,7.60
2023-01-13T12:28:17.365Z,6.30
2023-01-13T12:31:10.289Z,9.50
2023-01-13T12:34:20.621Z,9.60
2023-01-13T12:37:17.191Z,8.20
2023-01-13T12:40:23.202Z,9.10
2023-01-13T12:46:56.188Z,10.50
2023-01-13T12:49:48.809Z,7.40
2023-01-13T12:52:48.337Z,14.00
2023-01-13T12:55:41.033Z,12.70
2023-01-13T12:58:34.133Z,12.60
2023-01-13T13:01:42.288Z,22.50
2023-01-13T13:04:49.388Z,13.90
2023-01-13T13:07:45.823Z,11.30
2023-01-13T13:10:41.666Z,10.00
2023-01-13T13:13:48.955Z,9.60
2023-01-13T13:16:53.063Z,12.40
2023-01-13T13:19:48.952Z,9.20
2023-01-13T13:22:46.957Z,9.40
2023-01-13T13:25:40.232Z,8.70
2023-01-13T13:28:35.511Z,7.80
2023-01-13T13:31:36.920Z,9.60
2023-01-13T13:34:33.455Z,5.80
2023-01-13T13:37:56.685Z,7.40
2023-01-13T13:41:09.730Z,5.10
2023-01-13T13:44:29.304Z,5.60
2023-01-13T13:47:22.495Z,10.00
2023-01-13T13:50:20.046Z,5.50
2023-01-13T13:53:12.779Z,7.10
2023-01-13T13:56:08.439Z,6.50
2023-01-13T13:59:01.743Z,4.30
2023-01-13T14:02:01.668Z,5.50
2023-01-13T14:05:06.992Z,8.50
2023-01-13T14:08:05.162Z,7.10
2023-01-13T14:10:57.974Z,9.20
2023-01-13T14:13:51.620Z,8.00
2023-01-13T14:16:44.934Z,4.30
2023-01-13T14:19:44.317Z,7.80
2023-01-13T14:22:37.521Z,5.40
2023-01-13T14:25:37.042Z,6.00
2023-01-13T14:28:32.288Z,4.70
2023-01-13T14:31:25.055Z,9.60
2023-01-13T14:34:32.410Z,5.90
2023-01-13T14:37:36.285Z,6.00
2023-01-13T14:40:46.958Z,10.30
2023-01-13T14:43:44.765Z,10.20
2023-01-13T14:46:45.945Z,7.60
2023-01-13T14:49:42.460Z,6.50
2023-01-13T14:52:37.051Z,12.90
2023-01-13T14:55:32.430Z,8.30
2023-01-13T14:58:31.970Z,7.00
2023-01-13T15:01:36.426Z,14.40
2023-01-13T15:04:39.243Z,10.80
2023-01-13T15:07:33.291Z,4.90
2023-01-13T15:10:27.940Z,5.80
2023-01-13T15:13:32.061Z,10.50
2023-01-13T15:16:26.420Z,10.20
2023-01-13T15:19:19.226Z,7.00
2023-01-13T15:22:12.546Z,7.90
2023-01-13T15:25:09.557Z,10.20
2023-01-13T15:28:02.232Z,9.40
2023-01-13T15:30:55.896Z,10.00
2023-01-13T15:33:48.529Z,9.80
2023-01-13T15:36:42.281Z,9.40
2023-01-13T15:39:35.038Z,13.30
2023-01-13T15:42:45.668Z,8.20
2023-01-13T15:46:10.739Z,8.90
2023-01-13T15:49:09.882Z,10.70
2023-01-13T15:52:02.965Z,8.10
2023-01-13T15:54:55.869Z,5.80
2023-01-13T15:57:50.795Z,6.60
2023-01-13T16:00:43.598Z,13.10
2023-01-13T16:03:36.171Z,10.90
2023-01-13T16:06:34.527Z,8.70
2023-01-13T16:09:27.099Z,9.00
2023-01-13T16:12:19.727Z,7.60
2023-01-13T16:15:15.592Z,13.00
2023-01-13T16:20:59.515Z,6.50
2023-01-13T16:23:52.165Z,7.90
2023-01-13T16:26:44.802Z,7.20
2023-01-13T16:29:37.442Z,9.20
2023-01-13T16:32:30.043Z,7.00
2023-01-13T16:35:22.825Z,6.60
2023-01-13T16:38:19.205Z,7.80
2023-01-13T16:41:11.737Z,11.00
2023-01-13T16:44:06.038Z,9.60
2023-01-13T16:46:58.716Z,6.60
2023-01-13T16:49:51.409Z,6.80
2023-01-13T16:52:45.195Z,8.90
2023-01-13T16:55:37.869Z,11.20
2023-01-13T16:58:30.626Z,5.50
2023-01-13T17:01:26.233Z,5.40
2023-01-13T17:04:20.843Z,6.90
2023-01-13T17:07:17.774Z,5.10
2023-01-13T17:10:13.921Z,14.30
2023-01-13T17:13:15.563Z,9.60
2023-01-13T17:16:21.128Z,13.70
2023-01-13T17:19:15.194Z,15.40
2023-01-13T17:22:07.839Z,8.30
2023-01-13T17:25:00.439Z,10.60
2023-01-13T17:27:53.032Z,5.30
2023-01-13T17:30:47.965Z,5.80
2023-01-13T17:33:40.559Z,5.60
2023-01-13T17:36:33.240Z,7.60
2023-01-13T17:39:28.420Z,6.30
2023-01-13T17:42:20.981Z,7.70
2023-01-13T17:45:14.794Z,5.00
2023-01-13T17:48:07.788Z,4.80
2023-01-13T17:51:00.675Z,4.90
2023-01-13T17:53:53.461Z,4.50
2023-01-13T17:56:46.492Z,5.40
2023-01-13T17:59:41.262Z,4.00
2023-01-13T18:02:33.960Z,6.80
2023-01-13T18:05:27.903Z,6.70
2023-01-13T18:08:23.615Z,3.30
2023-01-13T18:11:18.654Z,6.50
2023-01-13T18:14:11.743Z,7.00
2023-01-13T18:17:04.440Z,12.70
2023-01-13T18:20:14.685Z,4.90
2023-01-13T18:23:24.566Z,6.30
2023-01-13T18:26:37.999Z,7.30
2023-01-13T18:29:30.605Z,3.30
2023-01-13T18:32:23.552Z,6.50
2023-01-13T18:35:16.143Z,7.40
2023-01-13T18:38:08.805Z,5.60
2023-01-13T18:41:21.622Z,9.50
2023-01-13T18:44:14.373Z,8.70
2023-01-13T18:47:06.976Z,7.20
2023-01-13T18:49:59.674Z,12.80
2023-01-13T18:52:52.213Z,20.80
2023-01-13T18:55:44.823Z,17.90
2023-01-13T18:58:37.401Z,11.90
2023-01-13T19:01:31.132Z,9.70
2023-01-13T19:04:23.875Z,6.50
2023-01-13T19:07:22.257Z,11.30
2023-01-13T19:10:17.030Z,9.70
2023-01-13T19:13:09.668Z,9.70
2023-01-13T19:16:08.158Z,5.60
2023-01-13T19:19:01.323Z,7.80
2023-01-13T19:21:53.856Z,10.70
2023-01-13T19:24:46.656Z,9.30
2023-01-13T19:27:39.880Z,7.00
2023-01-13T19:30:32.518Z,6.80
2023-01-13T19:33:25.678Z,9.60
2023-01-13T19:36:18.822Z,10.20
2023-01-13T19:39:11.932Z,9.70
2023-01-13T19:42:22.705Z,7.60
2023-01-13T19:45:27.256Z,6.80
2023-01-13T19:48:21.191Z,8.10
2023-01-13T19:51:14.628Z,9.00
2023-01-13T19:54:07.649Z,8.00
2023-01-13T19:57:00.246Z,9.70
2023-01-13T19:59:52.779Z,10.90
2023-01-13T20:02:49.430Z,6.10
2023-01-13T20:05:43.209Z,5.80
2023-01-13T20:08:36.465Z,4.80
2023-01-13T20:11:33.121Z,7.30
2023-01-13T20:14:26.653Z,9.10
2023-01-13T20:17:20.591Z,3.30
2023-01-13T20:20:15.855Z,4.40
2023-01-13T20:23:08.682Z,8.10
2023-01-13T20:26:01.328Z,11.70
2023-01-13T20:28:53.932Z,10.00
2023-01-13T20:31:47.875Z,8.50
2023-01-13T20:34:40.751Z,6.80
2023-01-13T20:37:33.464Z,8.50
2023-01-13T20:40:27.699Z,11.90
2023-01-13T20:43:21.211Z,9.00
2023-01-13T20:46:14.279Z,9.10
2023-01-13T20:49:07.076Z,8.30
2023-01-13T20:51:59.690Z,12.60
2023-01-13T20:54:52.640Z,8.60
2023-01-13T20:57:48.573Z,7.50
2023-01-13T21:00:41.215Z,4.70
2023-01-13T21:03:34.196Z,8.60
2023-01-13T21:06:27.291Z,6.40
2023-01-13T21:09:20.386Z,11.10
2023-01-13T21:12:33.398Z,11.20
2023-01-13T21:15:27.420Z,9.90
2023-01-13T21:18:37.905Z,9.80
2023-01-13T21:21:30.911Z,11.00
2023-01-13T21:24:23.646Z,8.60
2023-01-13T21:27:16.916Z,12.90
2023-01-13T21:30:17.083Z,8.30
2023-01-13T21:33:11.940Z,9.00
2023-01-13T21:36:09.583Z,10.50
2023-01-13T21:39:03.035Z,9.80
2023-01-13T21:42:14.054Z,10.60
2023-01-13T21:45:27.659Z,10.20
2023-01-13T21:48:21.026Z,7.60
2023-01-13T21:51:14.340Z,6.10
2023-01-13T21:54:07.173Z,9.30
2023-01-13T21:57:00.754Z,9.20
2023-01-13T21:59:54.350Z,11.60
2023-01-13T22:02:48.134Z,8.20
2023-01-13T22:05:40.912Z,8.60
2023-01-13T22:08:35.713Z,9.40
2023-01-13T22:11:29.065Z,9.20
2023-01-13T22:14:24.012Z,9.10
2023-01-13T22:17:20.753Z,9.20
2023-01-13T22:20:18.196Z,9.70
2023-01-13T22:23:10.739Z,12.00
2023-01-13T22:26:06.561Z,11.00
2023-01-13T22:28:59.415Z,12.40
2023-01-13T22:31:52.668Z,11.30
2023-01-13T22:34:46.152Z,13.70
2023-01-13T22:37:39.459Z,11.00
2023-01-13T22:40:32.655Z,11.40
2023-01-13T22:43:25.829Z,10.80
2023-01-13T22:46:19.334Z,9.30
2023-01-13T22:49:11.918Z,7.90
2023-01-13T22:52:05.865Z,13.40
2023-01-13T22:55:00.782Z,13.20
2023-01-13T22:57:53.554Z,9.20
2023-01-13T23:00:47.503Z,10.90
2023-01-13T23:03:40.766Z,12.40
2023-01-13T23:06:35.145Z,8.40
2023-01-13T23:09:29.890Z,8.90
2023-01-13T23:12:22.731Z,10.30
2023-01-13T23:15:17.247Z,10.50
2023-01-13T23:18:10.421Z,11.20
2023-01-13T23:21:08.574Z,10.20
2023-01-13T23:24:01.394Z,7.40
2023-01-13T23:26:53.968Z,9.50
2023-01-13T23:29:47.274Z,10.40
2023-01-13T23:32:40.440Z,13.10
2023-01-13T23:35:33.555Z,8.20
2023-01-13T23:38:26.808Z,7.80
2023-01-13T23:41:22.543Z,8.40
2023-01-13T23:44:15.219Z,11.60
2023-01-13T23:47:08.504Z,10.20
2023-01-13T23:50:01.622Z,8.10
2023-01-13T23:52:54.865Z,10.20
2023-01-13T23:55:47.991Z,11.30
2023-01-13T23:58:41.148Z,8.40
